Time;durP1;ratioP1;P1;durP2;ratioP2;P2;SDS_P1;SDS_P2;PMS_P1;PMS_P2;Temp;Humidity;BMP_temperature;BMP_pressure;BME280_temperature;BME280_humidity;BME280_pressure;Samples;Min_cycle;Max_cycle;Signal;HPM_P1;HPM_P2
2023/06/27 00:04:29;;;;;;;6.80;4.10;;;;;;;25.22;66.78;100623.53;10212463;28;96581;-81
2023/06/27 00:09:32;;;;;;;5.03;4.07;;;;;;;25.03;67.29;100623.53;10215534;28;96448;-81
2023/06/27 00:14:37;;;;;;;6.72;4.05;;;;;;;25.05;67.10;100624.25;10218455;28;96528;-81
2023/06/27 00:19:44;;;;;;;5.43;4.28;;;;;;;24.98;67.72;100620.41;10217239;28;96614;-80
2023/06/27 00:24:48;;;;;;;6.38;4.35;;;;;;;25.21;66.87;100619.13;10217663;28;96724;-81
2023/06/27 00:29:51;;;;;;;6.43;4.40;;;;;;;25.29;66.53;100613.88;10217988;28;97191;-81
2023/06/27 00:34:56;;;;;;;5.90;4.40;;;;;;;24.91;67.77;100611.19;10217616;28;96528;-81
2023/06/27 00:40:00;;;;;;;6.30;4.35;;;;;;;25.00;67.53;100608.50;10217507;28;96630;-81
2023/06/27 00:45:03;;;;;;;5.13;3.85;;;;;;;24.86;67.68;100627.78;10217494;28;96602;-81
2023/06/27 00:50:10;;;;;;;5.78;4.05;;;;;;;24.80;67.94;100626.50;10217246;28;97698;-81
2023/06/27 00:55:13;;;;;;;5.55;4.07;;;;;;;25.11;66.89;100629.06;10217330;28;97147;-81
2023/06/27 01:00:18;;;;;;;5.27;3.87;;;;;;;24.99;67.03;100628.38;10217040;28;96639;-81
2023/06/27 01:05:23;;;;;;;6.35;4.18;;;;;;;24.98;66.97;100634.72;10216745;28;96587;-81
2023/06/27 01:10:34;;;;;;;5.38;3.88;;;;;;;24.69;67.51;100628.47;10215540;28;96703;-80
2023/06/27 01:15:39;;;;;;;5.28;3.88;;;;;;;24.93;66.82;100628.06;10216636;28;96587;-81
2023/06/27 01:20:45;;;;;;;5.32;3.80;;;;;;;24.60;67.56;100614.03;10216131;28;96540;-81
2023/06/27 01:25:52;;;;;;;5.45;4.20;;;;;;;24.42;68.01;100609.47;10215880;28;96611;-81
2023/06/27 01:30:56;;;;;;;5.55;3.97;;;;;;;24.34;68.24;100609.34;10216015;28;96511;-81
2023/06/27 01:36:04;;;;;;;;;;;;;;;24.48;68.25;100607.06;10216239;28;96576;-81
2023/06/27 01:41:12;;;;;;;6.13;4.13;;;;;;;24.53;67.27;100598.59;10216047;28;96600;-81
2023/06/27 01:46:17;;;;;;;5.40;3.88;;;;;;;24.49;67.52;100591.78;10216133;28;96439;-81
2023/06/27 01:51:20;;;;;;;;;;;;;;;24.31;68.75;100590.75;10215762;28;98405;-80
2023/06/27 01:56:25;;;;;;;6.35;4.30;;;;;;;24.12;68.38;100594.25;10214815;28;96669;-80
2023/06/27 02:01:29;;;;;;;6.20;4.57;;;;;;;24.04;68.94;100590.56;10214097;28;96560;-80
2023/06/27 02:06:32;;;;;;;5.97;4.55;;;;;;;24.15;68.07;100593.97;10214892;28;96555;-81
2023/06/27 02:11:37;;;;;;;6.18;4.13;;;;;;;24.03;68.36;100600.44;10214676;28;96536;-81
2023/06/27 02:16:41;;;;;;;5.15;3.88;;;;;;;23.89;68.71;100595.47;10214446;28;96704;-81
2023/06/27 02:21:44;;;;;;;5.97;4.40;;;;;;;23.73;69.49;100585.22;10214362;28;97204;-80
2023/06/27 02:26:49;;;;;;;7.15;4.28;;;;;;;23.58;69.76;100588.41;10214316;28;96752;-80
2023/06/27 02:31:52;;;;;;;6.43;4.30;;;;;;;23.40;70.40;100588.16;10213219;28;96546;-80
2023/06/27 02:36:56;;;;;;;6.40;4.57;;;;;;;23.41;70.04;100580.94;10214734;28;96450;-81
2023/06/27 02:42:01;;;;;;;6.57;4.67;;;;;;;23.42;69.36;100588.03;10213778;28;96607;-81
2023/06/27 02:47:05;;;;;;;6.95;4.10;;;;;;;23.30;69.37;100578.34;10213548;28;96532;-80
2023/06/27 02:52:09;;;;;;;5.68;4.07;;;;;;;23.19;70.18;100579.28;10212091;28;96730;-81
2023/06/27 02:57:14;;;;;;;5.88;4.22;;;;;;;23.28;69.41;100575.81;10213090;28;96687;-80
2023/06/27 03:02:18;;;;;;;5.85;4.30;;;;;;;23.27;69.44;100574.09;10213121;28;96619;-80
2023/06/27 03:07:22;;;;;;;5.57;4.05;;;;;;;23.37;69.24;100571.47;10212944;28;96728;-80
2023/06/27 03:12:26;;;;;;;5.53;4.07;;;;;;;23.11;70.25;100571.03;10212931;28;96651;-80
2023/06/27 03:17:30;;;;;;;5.43;4.13;;;;;;;22.97;71.09;100568.72;10212968;28;96698;-80
2023/06/27 03:22:33;;;;;;;6.23;4.63;;;;;;;22.78;72.09;100573.94;10212272;28;96827;-81
2023/06/27 03:27:38;;;;;;;5.33;4.00;;;;;;;22.75;72.41;100563.41;10213556;28;96727;-81
2023/06/27 03:32:42;;;;;;;8.18;4.90;;;;;;;22.66;72.68;100561.53;10212402;28;96638;-80
2023/06/27 03:37:45;;;;;;;7.40;5.13;;;;;;;22.55;73.32;100572.31;10212282;28;96491;-80
2023/06/27 03:42:50;;;;;;;6.00;4.43;;;;;;;22.63;72.90;100576.03;10214258;28;96710;-80
2023/06/27 03:47:53;;;;;;;6.80;4.95;;;;;;;22.57;73.15;100584.59;10219164;28;96848;-81
2023/06/27 03:52:57;;;;;;;7.87;5.00;;;;;;;22.59;72.83;100576.44;10218612;28;97044;-81
2023/06/27 03:58:01;;;;;;;7.73;4.63;;;;;;;22.58;72.96;100577.41;10218432;28;96796;-81
2023/06/27 04:03:06;;;;;;;7.35;4.50;;;;;;;22.42;73.54;100569.78;10218680;28;96646;-81
2023/06/27 04:08:09;;;;;;;9.00;4.87;;;;;;;22.32;73.74;100565.31;10218457;28;96792;-80
2023/06/27 04:13:14;;;;;;;7.57;5.13;;;;;;;22.34;74.25;100564.22;10218667;28;96843;-80
2023/06/27 04:18:18;;;;;;;6.38;4.47;;;;;;;22.27;74.70;100568.38;10219046;28;96469;-80
2023/06/27 04:23:22;;;;;;;9.07;4.70;;;;;;;22.54;73.80;100568.75;10218022;28;96608;-79
2023/06/27 04:28:28;;;;;;;6.00;4.45;;;;;;;22.67;73.43;100570.41;10218008;28;96580;-79
2023/06/27 04:33:31;;;;;;;7.55;5.07;;;;;;;22.82;73.22;100563.78;10216752;28;96755;-80
2023/06/27 04:38:38;;;;;;;6.15;4.30;;;;;;;22.92;72.57;100562.84;10217581;28;96640;-80
2023/06/27 04:43:43;;;;;;;6.57;4.55;;;;;;;23.12;71.43;100583.47;10217460;28;96696;-80
2023/06/27 04:48:48;;;;;;;7.18;4.78;;;;;;;23.19;71.09;100579.28;10217203;28;96741;-80
2023/06/27 04:53:51;;;;;;;;;;;;;;;23.24;70.26;100579.75;10216313;28;96889;-80
2023/06/27 04:58:56;;;;;;;6.25;4.50;;;;;;;23.35;69.74;100585.03;10217586;28;97303;-80
2023/06/27 05:04:04;;;;;;;6.35;4.25;;;;;;;23.37;69.61;100587.59;10216954;28;96598;-80
2023/06/27 05:09:08;;;;;;;5.95;4.22;;;;;;;23.44;69.01;100596.81;10217556;28;97329;-80
2023/06/27 05:14:12;;;;;;;6.47;4.50;;;;;;;23.50;68.51;100594.44;10216534;28;96664;-80
2023/06/27 05:19:16;;;;;;;6.13;4.35;;;;;;;23.55;68.13;100594.06;10216336;28;96715;-80
2023/06/27 05:24:19;;;;;;;6.33;4.33;;;;;;;23.55;67.89;100589.53;10215213;28;96590;-80
2023/06/27 05:29:24;;;;;;;6.33;3.90;;;;;;;23.64;67.02;100588.75;10215937;28;96654;-80
2023/06/27 05:34:29;;;;;;;5.50;4.20;;;;;;;23.58;67.31;100594.63;10215747;28;96692;-80
2023/06/27 05:39:33;;;;;;;5.83;4.20;;;;;;;23.62;67.05;100604.13;10215702;28;96704;-80
2023/06/27 05:44:38;;;;;;;7.40;3.90;;;;;;;23.63;66.99;100602.31;10215604;28;97150;-80
2023/06/27 05:49:41;;;;;;;4.18;3.38;;;;;;;23.68;66.49;100610.81;10215537;28;96651;-80
2023/06/27 05:54:45;;;;;;;5.67;3.73;;;;;;;23.74;66.00;100607.56;10214691;28;96689;-80
2023/06/27 05:59:50;;;;;;;;;;;;;;;23.80;65.23;100604.34;10216382;28;96529;-80
2023/06/27 06:04:55;;;;;;;5.45;3.90;;;;;;;23.87;65.00;100610.03;10213975;28;96692;-80
2023/06/27 06:09:58;;;;;;;4.43;3.33;;;;;;;23.90;64.51;100602.53;10215096;28;96489;-81
2023/06/27 06:15:03;;;;;;;4.97;3.50;;;;;;;24.03;64.28;100618.44;10213565;28;96615;-81
2023/06/27 06:20:10;;;;;;;5.45;3.53;;;;;;;24.07;63.85;100614.47;10214458;28;96470;-80
2023/06/27 06:25:13;;;;;;;4.63;3.60;;;;;;;24.10;63.46;100619.59;10237551;22;98518;-79
2023/06/27 06:30:18;;;;;;;3.80;3.07;;;;;;;24.22;63.20;100627.38;10250170;28;96735;-80
2023/06/27 06:35:22;;;;;;;6.20;3.63;;;;;;;24.31;62.71;100633.81;10249530;28;96751;-79
2023/06/27 06:40:29;;;;;;;4.20;2.90;;;;;;;24.34;62.52;100639.75;10250023;28;97435;-80
2023/06/27 06:45:33;;;;;;;3.95;2.85;;;;;;;24.57;61.79;100627.75;10249601;28;96767;-80
2023/06/27 06:50:37;;;;;;;3.95;3.25;;;;;;;24.66;60.98;100628.75;10210585;28;96583;-80
2023/06/27 06:55:41;;;;;;;3.90;2.93;;;;;;;24.74;60.10;100632.44;10240211;28;97027;-80
2023/06/27 07:00:46;;;;;;;4.20;2.90;;;;;;;24.73;59.54;100628.06;10249179;28;97451;-81
2023/06/27 07:05:50;;;;;;;3.92;3.20;;;;;;;24.84;59.67;100622.53;10248727;28;96656;-81
2023/06/27 07:10:53;;;;;;;4.55;2.75;;;;;;;24.92;58.76;100629.03;10248775;28;96780;-80
2023/06/27 07:15:58;;;;;;;4.13;2.97;;;;;;;25.07;58.32;100633.03;10248793;28;96864;-79
2023/06/27 07:21:01;;;;;;;3.75;2.78;;;;;;;25.13;57.93;100627.06;10248810;28;97277;-80
2023/06/27 07:26:05;;;;;;;4.22;2.90;;;;;;;25.28;57.49;100628.31;10247832;28;96707;-80
2023/06/27 07:31:10;;;;;;;4.00;2.47;;;;;;;25.21;56.62;100619.13;10248108;28;96894;-80
2023/06/27 07:36:14;;;;;;;3.95;2.63;;;;;;;25.37;55.93;100622.91;10248147;28;96739;-80
2023/06/27 07:41:17;;;;;;;3.50;2.40;;;;;;;25.47;55.77;100620.19;10249142;28;96686;-80
2023/06/27 07:46:22;;;;;;;2.93;2.23;;;;;;;25.59;54.98;100613.63;10247803;28;97164;-80
2023/06/27 07:51:26;;;;;;;3.60;2.53;;;;;;;25.61;54.94;100619.72;10218516;28;97429;-80
2023/06/27 07:56:30;;;;;;;3.60;2.20;;;;;;;25.71;54.63;100625.97;10205721;28;96867;-80
2023/06/27 08:01:36;;;;;;;3.15;1.98;;;;;;;25.88;54.06;100627.88;10221360;28;96884;-81
2023/06/27 08:06:39;;;;;;;2.95;2.15;;;;;;;26.05;53.86;100624.38;10247476;28;96716;-81
2023/06/27 08:11:43;;;;;;;3.97;2.42;;;;;;;26.10;53.30;100627.47;10246930;28;97655;-81
2023/06/27 08:16:48;;;;;;;3.28;2.42;;;;;;;26.13;53.09;100621.78;10247569;28;97522;-80
2023/06/27 08:21:51;;;;;;;3.63;2.28;;;;;;;26.24;52.95;100620.72;10207504;28;97959;-80
2023/06/27 08:26:55;;;;;;;2.53;1.83;;;;;;;26.32;51.83;100618.97;10239664;28;96883;-80
2023/06/27 08:32:01;;;;;;;3.17;2.13;;;;;;;26.38;51.89;100614.84;10253476;28;96790;-80
2023/06/27 08:37:05;;;;;;;2.65;1.95;;;;;;;26.45;51.92;100616.78;10253549;28;96722;-80
2023/06/27 08:42:10;;;;;;;2.80;2.00;;;;;;;26.59;51.47;100610.81;10253398;28;96544;-80
2023/06/27 08:47:19;;;;;;;3.38;2.22;;;;;;;26.73;51.13;100604.06;10252456;28;97066;-80
2023/06/27 08:52:25;;;;;;;3.58;2.50;;;;;;;26.85;51.28;100614.44;10246092;28;96799;-81
2023/06/27 08:57:33;;;;;;;3.25;2.22;;;;;;;26.98;50.66;100603.25;10252641;28;98245;-81
2023/06/27 09:02:39;;;;;;;2.60;2.17;;;;;;;27.20;50.24;100594.66;10252865;28;97609;-81
2023/06/27 09:07:43;;;;;;;2.95;2.03;;;;;;;27.42;49.96;100596.00;10252775;28;96873;-80
2023/06/27 09:12:48;;;;;;;3.10;1.90;;;;;;;27.36;49.78;100591.22;10252292;28;96726;-80
2023/06/27 09:17:53;;;;;;;4.43;1.98;;;;;;;27.35;49.72;100585.00;10252236;28;97397;-81
2023/06/27 09:22:58;;;;;;;3.13;2.40;;;;;;;27.56;49.14;100581.91;10247061;28;97220;-81
2023/06/27 09:28:16;;;;;;;3.63;2.60;;;;;;;27.66;49.65;100585.31;10252077;28;96764;-81
2023/06/27 09:33:21;;;;;;;3.30;2.15;;;;;;;27.73;49.16;100583.69;10251877;28;96894;-80
2023/06/27 09:38:32;;;;;;;3.15;2.20;;;;;;;27.80;49.02;100577.50;10251049;28;97182;-81
2023/06/27 09:43:38;;;;;;;2.90;2.30;;;;;;;27.94;48.80;100570.59;10244942;28;96762;-80
2023/06/27 09:48:44;;;;;;;3.88;2.83;;;;;;;28.12;48.46;100579.44;10251547;28;96749;-80
2023/06/27 09:53:54;;;;;;;3.53;2.55;;;;;;;28.00;48.23;100578.91;10234009;28;97724;-81
2023/06/27 09:58:58;;;;;;;3.60;2.50;;;;;;;28.32;48.19;100585.47;10211880;28;96805;-80
2023/06/27 10:04:20;;;;;;;3.05;2.33;;;;;;;28.50;47.46;100569.94;10248245;28;96864;-81
2023/06/27 10:09:42;;;;;;;4.63;2.83;;;;;;;28.34;47.38;100561.78;10251076;28;96908;-81
2023/06/27 10:14:46;;;;;;;3.55;2.95;;;;;;;28.55;47.23;100554.03;10251063;28;97921;-80
2023/06/27 10:20:11;;;;;;;3.53;2.65;;;;;;;28.63;47.38;100554.03;10249404;28;96822;-80
2023/06/27 10:25:17;;;;;;;2.53;2.08;;;;;;;28.91;47.04;100544.56;10249579;28;97169;-80
2023/06/27 10:30:25;;;;;;;4.53;2.95;;;;;;;29.13;46.62;100543.84;10249378;28;96634;-81
2023/06/27 10:35:53;;;;;;;3.53;2.38;;;;;;;29.17;46.35;100529.78;10243314;28;96991;-80
2023/06/27 10:41:33;;;;;;;3.28;2.50;;;;;;;29.44;45.73;100527.66;10243523;28;97124;-81
2023/06/27 10:46:37;;;;;;;3.80;2.88;;;;;;;29.56;45.99;100515.44;10250018;28;97147;-81
2023/06/27 10:52:02;;;;;;;3.50;2.50;;;;;;;29.71;45.78;100511.81;10248671;28;96740;-81
2023/06/27 10:57:23;;;;;;;2.85;2.25;;;;;;;29.67;45.41;100502.38;10218466;28;96834;-80
2023/06/27 11:02:33;;;;;;;3.83;2.72;;;;;;;29.82;45.22;100497.00;10209094;28;97889;-80
2023/06/27 11:07:40;;;;;;;3.53;2.90;;;;;;;30.02;45.29;100493.66;10216007;28;96797;-81
2023/06/27 11:12:43;;;;;;;4.57;3.08;;;;;;;30.08;44.96;100484.81;10248600;28;96794;-80
2023/06/27 11:17:46;;;;;;;;;;;;;;;30.35;44.92;100475.34;10249283;28;97470;-81
2023/06/27 11:23:09;;;;;;;3.47;2.53;;;;;;;30.35;44.68;100474.47;10241446;28;97885;-81
2023/06/27 11:28:29;;;;;;;3.17;2.33;;;;;;;30.31;44.52;100473.16;10242055;28;96833;-81
2023/06/27 11:33:32;;;;;;;;;;;;;;;30.55;44.56;100468.34;10248352;28;97549;-81
2023/06/27 11:38:55;;;;;;;3.63;2.45;;;;;;;30.66;44.33;100465.22;10247142;28;97640;-81
2023/06/27 11:43:58;;;;;;;3.13;2.70;;;;;;;30.65;43.59;100466.22;10247962;28;96866;-81
2023/06/27 11:49:22;;;;;;;3.22;2.33;;;;;;;31.05;43.19;100463.13;10241951;28;96746;-81
2023/06/27 11:54:27;;;;;;;3.55;2.63;;;;;;;31.24;43.38;100464.47;10240659;28;96829;-80
2023/06/27 11:59:52;;;;;;;3.58;2.42;;;;;;;31.49;42.84;100451.41;10220128;28;96765;-81
2023/06/27 12:04:58;;;;;;;4.20;2.72;;;;;;;31.48;42.56;100447.84;10250954;28;96963;-81
2023/06/27 12:10:09;;;;;;;4.28;2.47;;;;;;;31.69;42.48;100436.16;10254753;28;96608;-81
2023/06/27 12:15:14;;;;;;;3.65;2.70;;;;;;;31.68;42.68;100434.50;10253090;28;96868;-81
2023/06/27 12:20:18;;;;;;;4.22;3.03;;;;;;;31.84;42.39;100429.66;10254443;28;96668;-80
2023/06/27 12:25:41;;;;;;;2.92;2.47;;;;;;;31.89;41.87;100426.38;10249617;28;96856;-81
2023/06/27 12:30:44;;;;;;;3.67;2.70;;;;;;;31.93;42.36;100416.78;10253974;28;96651;-81
2023/06/27 12:35:48;;;;;;;3.33;2.63;;;;;;;32.34;41.38;100412.41;10253813;28;98201;-81
2023/06/27 12:41:11;;;;;;;4.57;3.00;;;;;;;32.13;41.26;100406.94;10247419;28;96730;-81
2023/06/27 12:46:32;;;;;;;4.25;2.92;;;;;;;32.45;41.53;100400.13;10247124;28;96943;-81
2023/06/27 12:51:53;;;;;;;4.80;3.38;;;;;;;32.58;41.39;100387.44;10249943;28;97891;-81
2023/06/27 12:56:58;;;;;;;4.25;2.92;;;;;;;32.77;41.73;100381.28;10225576;28;96746;-81
2023/06/27 13:02:01;;;;;;;4.75;3.03;;;;;;;32.88;41.08;100369.03;10212646;28;96676;-81
2023/06/27 13:07:05;;;;;;;4.28;2.70;;;;;;;33.12;41.15;100363.88;10221422;28;96712;-81
2023/06/27 13:12:12;;;;;;;3.33;2.60;;;;;;;33.02;40.57;100354.41;10252426;28;97775;-81
2023/06/27 13:17:33;;;;;;;3.15;2.47;;;;;;;33.03;40.78;100340.56;10245455;28;97665;-82
2023/06/27 13:22:37;;;;;;;3.50;2.85;;;;;;;33.34;40.92;100334.59;10252510;28;97204;-81
2023/06/27 13:27:42;;;;;;;4.32;3.17;;;;;;;33.24;39.87;100336.88;10251238;28;96738;-81
2023/06/27 13:32:46;;;;;;;3.65;2.85;;;;;;;33.47;39.78;100330.03;10252091;28;96561;-81
2023/06/27 13:37:50;;;;;;;3.67;2.70;;;;;;;33.53;40.05;100319.34;10251584;28;97120;-81
2023/06/27 13:43:04;;;;;;;4.35;3.05;;;;;;;33.46;39.45;100313.88;10252377;28;97107;-82
2023/06/27 13:48:08;;;;;;;3.83;2.80;;;;;;;33.57;38.92;100316.03;10251732;28;97888;-81
2023/06/27 13:53:12;;;;;;;3.60;3.10;;;;;;;33.54;38.38;100304.66;10251091;28;96963;-81
2023/06/27 13:58:16;;;;;;;4.13;2.70;;;;;;;33.81;37.62;100306.38;10224239;28;96636;-81
2023/06/27 14:03:39;;;;;;;4.00;3.00;;;;;;;34.07;37.02;100301.81;10248235;28;96746;-81
2023/06/27 14:08:42;;;;;;;4.30;3.25;;;;;;;34.17;35.98;100304.09;10251382;28;96850;-81
2023/06/27 14:13:49;;;;;;;4.10;3.03;;;;;;;34.13;35.34;100286.44;10250052;28;96734;-81
2023/06/27 14:18:54;;;;;;;4.15;3.22;;;;;;;34.16;35.43;100286.84;10250209;28;97805;-81
2023/06/27 14:24:15;;;;;;;3.60;2.85;;;;;;;34.71;33.86;100281.94;10246865;28;96819;-82
2023/06/27 14:29:20;;;;;;;4.43;3.28;;;;;;;34.43;32.50;100268.56;10248884;28;96869;-81
2023/06/27 14:34:23;;;;;;;4.35;3.13;;;;;;;34.55;33.07;100264.13;10250386;28;96741;-81
2023/06/27 14:39:26;;;;;;;3.78;2.90;;;;;;;34.75;32.08;100262.16;10250574;28;96888;-81
2023/06/27 14:44:32;;;;;;;3.45;2.72;;;;;;;34.74;31.81;100252.28;10243375;28;97465;-81
2023/06/27 14:49:36;;;;;;;4.30;2.95;;;;;;;34.90;30.42;100249.06;10248313;28;98066;-81
2023/06/27 14:54:40;;;;;;;3.67;2.80;;;;;;;34.94;31.30;100242.13;10249015;28;96813;-81
2023/06/27 14:59:44;;;;;;;3.58;2.92;;;;;;;35.16;31.85;100238.03;10249139;28;97063;-81
2023/06/27 15:04:48;;;;;;;4.68;3.22;;;;;;;35.41;31.20;100224.34;10248777;28;97881;-81
2023/06/27 15:09:53;;;;;;;3.78;2.80;;;;;;;35.22;31.50;100222.59;10248864;28;98108;-81
2023/06/27 15:15:00;;;;;;;3.72;2.83;;;;;;;35.22;29.84;100217.97;10248879;28;96798;-81
2023/06/27 15:20:04;;;;;;;3.60;2.80;;;;;;;35.15;30.45;100216.34;10248838;28;96764;-81
2023/06/27 15:25:25;;;;;;;3.35;2.67;;;;;;;35.36;29.16;100211.34;10244770;28;96675;-82
2023/06/27 15:30:30;;;;;;;3.35;2.50;;;;;;;35.30;28.35;100208.66;10248425;28;96700;-82
2023/06/27 15:35:34;;;;;;;3.88;2.83;;;;;;;35.39;28.49;100197.22;10248011;28;97799;-81
2023/06/27 15:40:38;;;;;;;4.65;2.85;;;;;;;35.54;28.34;100197.78;10253124;28;96724;-82
2023/06/27 15:46:01;;;;;;;3.80;3.08;;;;;;;35.88;29.21;100195.56;10252884;28;97665;-82
2023/06/27 15:51:05;;;;;;;3.58;2.90;;;;;;;36.04;27.88;100195.03;10255058;28;96670;-82
2023/06/27 15:56:09;;;;;;;4.00;2.97;;;;;;;36.25;27.08;100191.84;10250470;28;96784;-82
2023/06/27 16:01:13;;;;;;;3.53;2.78;;;;;;;35.70;27.95;100182.69;10255085;28;97464;-82
2023/06/27 16:06:17;;;;;;;3.80;2.97;;;;;;;35.71;27.85;100180.75;10254692;28;97255;-81
2023/06/27 16:11:20;;;;;;;4.00;3.08;;;;;;;35.54;28.20;100175.88;10254668;28;96687;-82
2023/06/27 16:16:42;;;;;;;5.93;4.15;;;;;;;35.43;31.22;100168.38;10254344;28;96876;-82
2023/06/27 16:21:46;;;;;;;6.18;4.70;;;;;;;34.83;37.18;100165.38;10254745;28;96711;-82
2023/06/27 16:26:50;;;;;;;6.25;4.72;;;;;;;34.70;37.62;100166.25;10253597;28;99204;-82
2023/06/27 16:32:13;;;;;;;5.22;4.40;;;;;;;34.41;39.27;100164.91;10246507;28;96703;-82
2023/06/27 16:37:17;;;;;;;5.50;4.80;;;;;;;34.32;40.22;100158.00;10254088;28;97264;-81
2023/06/27 16:42:20;;;;;;;5.60;4.70;;;;;;;34.31;40.37;100156.31;10253343;28;96796;-82
2023/06/27 16:47:25;;;;;;;7.15;5.07;;;;;;;34.13;41.24;100164.34;10253426;28;96902;-82
2023/06/27 16:52:46;;;;;;;6.97;4.80;;;;;;;34.03;41.19;100153.03;10246061;28;96731;-81
2023/06/27 16:58:06;;;;;;;6.43;5.05;;;;;;;33.74;42.06;100149.91;10227077;28;96658;-82
2023/06/27 17:03:29;;;;;;;7.10;4.90;;;;;;;33.65;41.97;100143.00;10206506;28;97819;-81
2023/06/27 17:08:34;;;;;;;5.32;4.68;;;;;;;33.61;42.26;100148.03;10251527;28;97540;-81
2023/06/27 17:13:56;;;;;;;6.68;5.05;;;;;;;33.49;42.66;100153.28;10246272;28;96583;-81
2023/06/27 17:19:18;;;;;;;6.85;5.55;;;;;;;33.53;42.79;100155.59;10246405;28;97118;-82
2023/06/27 17:24:21;;;;;;;5.85;4.68;;;;;;;33.62;42.61;100154.34;10250425;28;96822;-81
2023/06/27 17:29:25;;;;;;;6.55;4.90;;;;;;;33.32;43.37;100159.34;10252126;28;96726;-82
2023/06/27 17:34:29;;;;;;;6.00;4.93;;;;;;;33.28;43.46;100158.06;10252162;28;98350;-82
2023/06/27 17:39:33;;;;;;;6.38;4.50;;;;;;;33.20;43.28;100156.41;10252123;28;98199;-82
2023/06/27 17:44:36;;;;;;;5.60;4.78;;;;;;;33.25;43.29;100158.50;10251408;28;96632;-82
2023/06/27 17:49:41;;;;;;;8.45;4.50;;;;;;;33.18;43.36;100163.09;10251769;28;96669;-82
2023/06/27 17:54:46;;;;;;;5.70;4.63;;;;;;;32.90;43.74;100162.41;10251099;28;96579;-82
2023/06/27 17:59:50;;;;;;;7.43;5.15;;;;;;;32.90;44.12;100170.59;10251524;28;96717;-82
2023/06/27 18:04:55;;;;;;;4.97;4.45;;;;;;;32.84;43.79;100165.94;10251350;28;97725;-82
2023/06/27 18:09:59;;;;;;;4.97;4.18;;;;;;;32.75;43.90;100169.91;10251056;28;96680;-82
2023/06/27 18:15:20;;;;;;;6.75;4.65;;;;;;;32.58;44.58;100176.75;10243064;28;96700;-82
2023/06/27 18:20:24;;;;;;;6.00;4.07;;;;;;;32.52;44.40;100177.59;10250542;28;96712;-81
2023/06/27 18:25:28;;;;;;;6.03;4.63;;;;;;;32.55;45.06;100188.06;10248551;28;98389;-82
2023/06/27 18:30:31;;;;;;;5.53;4.80;;;;;;;32.46;45.19;100186.56;10250197;28;96821;-81
2023/06/27 18:35:55;;;;;;;6.40;4.25;;;;;;;32.32;45.34;100191.06;10248737;28;97630;-81
2023/06/27 18:40:59;;;;;;;6.85;4.35;;;;;;;32.23;45.76;100206.75;10250187;28;97031;-82
2023/06/27 18:46:03;;;;;;;5.65;4.57;;;;;;;32.08;46.49;100200.56;10249772;28;97044;-82
2023/06/27 18:51:08;;;;;;;9.00;5.82;;;;;;;32.01;46.66;100198.84;10250508;28;96729;-82
2023/06/27 18:56:13;;;;;;;6.10;4.50;;;;;;;31.86;47.35;100211.75;10225771;22;97248;-82
2023/06/27 19:01:17;;;;;;;5.93;4.60;;;;;;;31.70;48.19;100215.53;10209252;28;96623;-82
2023/06/27 19:06:39;;;;;;;5.55;4.63;;;;;;;31.59;48.21;100220.69;10201699;28;97154;-82
2023/06/27 19:11:43;;;;;;;6.68;4.55;;;;;;;31.45;48.77;100219.72;10208321;28;96676;-82
2023/06/27 19:16:46;;;;;;;6.20;4.00;;;;;;;31.34;49.43;100221.09;10208623;28;96664;-81
2023/06/27 19:21:52;;;;;;;5.88;4.75;;;;;;;31.22;49.52;100227.19;10208793;28;97063;-82
2023/06/27 19:26:55;;;;;;;5.72;4.53;;;;;;;31.13;49.55;100222.94;10208139;28;96656;-81
2023/06/27 19:31:58;;;;;;;5.25;4.18;;;;;;;30.97;49.96;100224.00;10208668;28;96627;-82
2023/06/27 19:37:04;;;;;;;7.85;4.47;;;;;;;30.91;49.82;100232.91;10207303;28;97651;-82
2023/06/27 19:42:07;;;;;;;4.95;4.18;;;;;;;30.84;50.68;100239.31;10208672;28;97254;-81
2023/06/27 19:47:11;;;;;;;5.18;4.07;;;;;;;30.74;50.73;100234.19;10208081;28;96832;-81
2023/06/27 19:52:16;;;;;;;5.00;4.28;;;;;;;30.59;51.02;100240.63;10208030;28;96754;-81
2023/06/27 19:57:19;;;;;;;6.80;5.00;;;;;;;30.43;51.34;100228.09;10205611;28;96885;-82
2023/06/27 20:02:40;;;;;;;6.00;4.65;;;;;;;30.27;52.18;100240.00;10205527;28;96661;-81
2023/06/27 20:07:47;;;;;;;5.85;4.13;;;;;;;30.20;51.97;100243.63;10207298;28;97243;-81
2023/06/27 20:12:50;;;;;;;7.15;4.47;;;;;;;30.16;52.34;100247.78;10207182;28;96734;-81
2023/06/27 20:18:11;;;;;;;6.40;4.47;;;;;;;29.90;52.85;100239.19;10206292;28;96818;-81
2023/06/27 20:23:15;;;;;;;;;;;;;;;29.73;54.24;100238.47;10207438;28;96675;-82
2023/06/27 20:28:19;;;;;;;5.55;4.45;;;;;;;29.68;53.02;100245.47;10213457;28;96699;-81
2023/06/27 20:33:22;;;;;;;;;;;;;;;29.57;53.96;100241.31;10214518;28;96774;-81
2023/06/27 20:38:27;;;;;;;6.70;4.43;;;;;;;29.40;53.66;100244.34;10213932;28;96716;-81
2023/06/27 20:43:30;;;;;;;6.05;4.50;;;;;;;29.21;54.40;100242.09;10213793;28;97129;-81
2023/06/27 20:48:52;;;;;;;5.63;4.57;;;;;;;29.02;54.53;100254.22;10205821;28;96763;-81
2023/06/27 20:53:57;;;;;;;5.78;4.38;;;;;;;29.00;54.72;100265.25;10212439;28;96828;-81
2023/06/27 20:59:00;;;;;;;6.03;4.45;;;;;;;28.74;55.78;100274.69;10213053;28;96766;-81
2023/06/27 21:04:04;;;;;;;5.38;4.07;;;;;;;28.57;56.02;100278.44;10212820;28;96853;-80
2023/06/27 21:09:09;;;;;;;6.07;4.63;;;;;;;28.87;55.47;100274.94;10212708;28;97132;-81
2023/06/27 21:14:12;;;;;;;6.97;4.22;;;;;;;28.65;56.38;100282.00;10212436;28;96816;-81
2023/06/27 21:19:16;;;;;;;6.63;4.45;;;;;;;28.48;56.81;100284.94;10211903;28;96785;-81
2023/06/27 21:24:20;;;;;;;5.43;4.60;;;;;;;28.58;56.67;100285.56;10212076;28;96964;-81
2023/06/27 21:29:25;;;;;;;5.95;4.30;;;;;;;28.63;56.33;100283.19;10212094;28;96792;-81
2023/06/27 21:34:29;;;;;;;7.10;4.93;;;;;;;28.41;57.01;100284.75;10211420;28;97013;-81
2023/06/27 21:39:34;;;;;;;6.55;4.88;;;;;;;28.26;57.47;100288.31;10210391;28;96701;-81
2023/06/27 21:44:37;;;;;;;6.65;5.18;;;;;;;28.33;57.53;100300.19;10211581;28;96997;-81
2023/06/27 21:49:40;;;;;;;6.90;4.75;;;;;;;28.29;57.25;100298.81;10210860;28;96525;-81
2023/06/27 21:54:45;;;;;;;6.57;5.00;;;;;;;27.92;58.33;100302.09;10210298;28;96784;-81
2023/06/27 21:59:48;;;;;;;6.63;4.60;;;;;;;27.85;58.91;100299.22;10211078;28;97594;-81
2023/06/27 22:05:10;;;;;;;6.35;5.03;;;;;;;28.19;57.96;100296.28;10204573;28;97671;-81
2023/06/27 22:10:15;;;;;;;5.47;4.32;;;;;;;27.82;59.09;100299.53;10210646;28;97999;-81
2023/06/27 22:15:18;;;;;;;6.53;4.70;;;;;;;27.64;59.69;100298.00;10211102;28;96700;-81
2023/06/27 22:20:22;;;;;;;5.85;4.55;;;;;;;27.55;59.82;100297.16;10210303;28;96738;-81
2023/06/27 22:25:43;;;;;;;6.65;4.65;;;;;;;27.71;59.06;100307.16;10207443;28;96875;-81
2023/06/27 22:31:04;;;;;;;6.65;4.90;;;;;;;27.38;60.25;100305.41;10207476;28;96763;-81
2023/06/27 22:36:08;;;;;;;5.55;4.45;;;;;;;27.36;59.96;100300.16;10209510;28;96888;-81
2023/06/27 22:41:13;;;;;;;6.45;4.35;;;;;;;27.27;60.01;100303.03;10209891;28;96722;-81
2023/06/27 22:46:16;;;;;;;6.10;4.72;;;;;;;27.28;60.35;100293.91;10208750;28;96803;-81
2023/06/27 22:51:37;;;;;;;6.00;4.25;;;;;;;27.13;61.04;100292.84;10203071;28;96942;-81
2023/06/27 22:56:41;;;;;;;6.68;4.70;;;;;;;27.40;60.13;100287.16;10208677;28;96827;-81
2023/06/27 23:01:45;;;;;;;6.95;5.05;;;;;;;27.56;59.50;100293.41;10209011;28;96792;-81
2023/06/27 23:06:48;;;;;;;5.68;4.82;;;;;;;27.25;60.28;100292.34;10209773;28;97830;-81
2023/06/27 23:11:53;;;;;;;7.53;4.93;;;;;;;27.29;60.28;100285.63;10208777;28;96732;-81
2023/06/27 23:17:14;;;;;;;6.97;4.70;;;;;;;26.97;61.11;100285.53;10204978;28;98086;-81
2023/06/27 23:22:19;;;;;;;6.70;5.10;;;;;;;26.91;61.65;100278.06;10207356;28;96717;-81
2023/06/27 23:27:42;;;;;;;6.07;4.83;;;;;;;26.82;61.67;100279.03;10202103;28;96754;-81
2023/06/27 23:32:54;;;;;;;6.60;4.72;;;;;;;26.81;62.18;100280.06;10208241;28;96896;-81
2023/06/27 23:38:02;;;;;;;6.77;5.20;;;;;;;26.64;62.68;100286.41;10208148;28;96720;-81